sensor_id;sensor_type;location;lat;lon;timestamp;pressure;altitude;pressure_sealevel;temperature;humidity
54122;BME280;40029;58.708;50.190;2023-06-26T00:01:30;99875.69;;;16.27;45.02
54122;BME280;40029;58.708;50.190;2023-06-26T00:04:04;99875.63;;;16.57;44.40
54122;BME280;40029;58.708;50.190;2023-06-26T00:06:35;99861.78;;;16.25;43.92
54122;BME280;40029;58.708;50.190;2023-06-26T00:09:25;99846.06;;;16.09;44.76
54122;BME280;40029;58.708;50.190;2023-06-26T00:11:56;99867.59;;;16.16;44.98
54122;BME280;40029;58.708;50.190;2023-06-26T00:14:27;99869.22;;;16.18;44.98
54122;BME280;40029;58.708;50.190;2023-06-26T00:16:58;99872.69;;;16.19;44.92
54122;BME280;40029;58.708;50.190;2023-06-26T00:19:30;99873.41;;;16.21;44.96
54122;BME280;40029;58.708;50.190;2023-06-26T00:22:01;99862.44;;;16.14;45.15
54122;BME280;40029;58.708;50.190;2023-06-26T00:24:32;99829.84;;;16.03;45.11
54122;BME280;40029;58.708;50.190;2023-06-26T00:27:04;99875.13;;;16.36;44.93
54122;BME280;40029;58.708;50.190;2023-06-26T00:29:35;99880.84;;;16.43;44.83
54122;BME280;40029;58.708;50.190;2023-06-26T00:32:06;99865.19;;;16.27;44.69
54122;BME280;40029;58.708;50.190;2023-06-26T00:34:39;99846.47;;;16.17;44.53
54122;BME280;40029;58.708;50.190;2023-06-26T00:37:10;99884.03;;;16.34;45.13
54122;BME280;40029;58.708;50.190;2023-06-26T00:39:41;99892.22;;;16.29;45.38
54122;BME280;40029;58.708;50.190;2023-06-26T00:42:13;99820.78;;;15.92;44.87
54122;BME280;40029;58.708;50.190;2023-06-26T00:44:44;99891.00;;;16.35;45.20
54122;BME280;40029;58.708;50.190;2023-06-26T00:47:16;99860.44;;;16.18;44.72
54122;BME280;40029;58.708;50.190;2023-06-26T00:49:48;99901.22;;;16.39;45.09
54122;BME280;40029;58.708;50.190;2023-06-26T00:52:19;99889.78;;;16.40;44.96
54122;BME280;40029;58.708;50.190;2023-06-26T00:54:51;99898.72;;;16.52;44.72
54122;BME280;40029;58.708;50.190;2023-06-26T00:57:23;99898.25;;;16.45;44.31
54122;BME280;40029;58.708;50.190;2023-06-26T00:59:55;99896.56;;;16.44;44.46
54122;BME280;40029;58.708;50.190;2023-06-26T01:02:26;99897.03;;;16.51;44.63
54122;BME280;40029;58.708;50.190;2023-06-26T01:05:05;99896.28;;;16.49;44.37
54122;BME280;40029;58.708;50.190;2023-06-26T01:07:40;99908.22;;;16.55;44.34
54122;BME280;40029;58.708;50.190;2023-06-26T01:10:11;99899.38;;;16.56;44.64
54122;BME280;40029;58.708;50.190;2023-06-26T01:12:43;99907.09;;;16.59;44.69
54122;BME280;40029;58.708;50.190;2023-06-26T01:15:14;99859.25;;;16.38;44.45
54122;BME280;40029;58.708;50.190;2023-06-26T01:17:45;99816.03;;;16.13;44.60
54122;BME280;40029;58.708;50.190;2023-06-26T01:20:18;99898.34;;;16.58;44.80
54122;BME280;40029;58.708;50.190;2023-06-26T01:28:42;99891.69;;;16.67;44.45
54122;BME280;40029;58.708;50.190;2023-06-26T01:31:15;99909.38;;;16.79;44.08
54122;BME280;40029;58.708;50.190;2023-06-26T01:33:47;99893.97;;;16.87;44.34
54122;BME280;40029;58.708;50.190;2023-06-26T01:36:18;99901.59;;;16.92;43.78
54122;BME280;40029;58.708;50.190;2023-06-26T01:38:49;99857.19;;;16.71;43.68
54122;BME280;40029;58.708;50.190;2023-06-26T01:41:21;99894.72;;;17.04;43.06
54122;BME280;40029;58.708;50.190;2023-06-26T01:47:02;99910.66;;;17.15;43.52
54122;BME280;40029;58.708;50.190;2023-06-26T01:50:35;99862.25;;;17.03;43.14
54122;BME280;40029;58.708;50.190;2023-06-26T01:53:13;99907.75;;;17.19;42.85
54122;BME280;40029;58.708;50.190;2023-06-26T01:56:05;99899.84;;;17.19;42.85
54122;BME280;40029;58.708;50.190;2023-06-26T01:58:41;99903.88;;;17.25;42.54
54122;BME280;40029;58.708;50.190;2023-06-26T02:01:14;99867.06;;;16.96;42.75
54122;BME280;40029;58.708;50.190;2023-06-26T02:03:45;99916.84;;;17.28;42.40
54122;BME280;40029;58.708;50.190;2023-06-26T02:06:16;99860.56;;;17.02;42.44
54122;BME280;40029;58.708;50.190;2023-06-26T02:08:47;99913.38;;;17.28;42.75
54122;BME280;40029;58.708;50.190;2023-06-26T02:11:18;99915.06;;;17.29;42.81
54122;BME280;40029;58.708;50.190;2023-06-26T02:13:49;99917.66;;;17.43;42.13
54122;BME280;40029;58.708;50.190;2023-06-26T02:16:21;99859.59;;;17.17;42.05
54122;BME280;40029;58.708;50.190;2023-06-26T02:18:52;99904.69;;;17.40;42.51
54122;BME280;40029;58.708;50.190;2023-06-26T02:21:50;99893.78;;;17.46;42.15
54122;BME280;40029;58.708;50.190;2023-06-26T02:24:21;99921.94;;;17.58;41.42
54122;BME280;40029;58.708;50.190;2023-06-26T02:26:53;99907.19;;;17.56;41.65
54122;BME280;40029;58.708;50.190;2023-06-26T02:29:24;99911.63;;;17.55;41.67
54122;BME280;40029;58.708;50.190;2023-06-26T02:31:55;99917.97;;;17.65;41.66
54122;BME280;40029;58.708;50.190;2023-06-26T02:34:27;99921.75;;;17.76;41.18
54122;BME280;40029;58.708;50.190;2023-06-26T02:36:58;99912.22;;;17.73;41.26
54122;BME280;40029;58.708;50.190;2023-06-26T02:39:31;99916.06;;;17.82;40.95
54122;BME280;40029;58.708;50.190;2023-06-26T02:42:02;99908.50;;;17.90;41.01
54122;BME280;40029;58.708;50.190;2023-06-26T02:44:34;99915.44;;;17.91;40.66
54122;BME280;40029;58.708;50.190;2023-06-26T02:47:05;99869.97;;;17.74;40.29
54122;BME280;40029;58.708;50.190;2023-06-26T02:49:37;99877.78;;;17.76;40.32
54122;BME280;40029;58.708;50.190;2023-06-26T02:52:09;99917.47;;;18.00;39.84
54122;BME280;40029;58.708;50.190;2023-06-26T02:54:40;99913.88;;;17.88;40.29
54122;BME280;40029;58.708;50.190;2023-06-26T02:57:30;99917.41;;;18.14;39.43
54122;BME280;40029;58.708;50.190;2023-06-26T03:00:02;99893.09;;;17.96;39.70
54122;BME280;40029;58.708;50.190;2023-06-26T03:02:35;99881.38;;;17.88;39.41
54122;BME280;40029;58.708;50.190;2023-06-26T03:05:13;99924.72;;;18.23;39.46
54122;BME280;40029;58.708;50.190;2023-06-26T03:07:44;99891.25;;;18.11;39.09
54122;BME280;40029;58.708;50.190;2023-06-26T03:10:16;99901.59;;;18.14;39.08
54122;BME280;40029;58.708;50.190;2023-06-26T03:12:48;99927.38;;;18.36;38.76
54122;BME280;40029;58.708;50.190;2023-06-26T03:15:21;99881.97;;;18.18;38.36
54122;BME280;40029;58.708;50.190;2023-06-26T03:17:52;99886.84;;;18.37;37.96
54122;BME280;40029;58.708;50.190;2023-06-26T03:20:29;99929.59;;;18.68;37.62
54122;BME280;40029;58.708;50.190;2023-06-26T03:23:02;99934.50;;;18.74;37.53
54122;BME280;40029;58.708;50.190;2023-06-26T03:25:33;99926.34;;;18.77;37.66
54122;BME280;40029;58.708;50.190;2023-06-26T03:28:20;99908.94;;;18.75;37.17
54122;BME280;40029;58.708;50.190;2023-06-26T03:30:51;99844.09;;;18.45;37.15
54122;BME280;40029;58.708;50.190;2023-06-26T03:33:23;99939.75;;;19.00;36.96
54122;BME280;40029;58.708;50.190;2023-06-26T03:35:54;99933.59;;;19.12;36.66
54122;BME280;40029;58.708;50.190;2023-06-26T03:38:25;99889.47;;;18.88;36.41
54122;BME280;40029;58.708;50.190;2023-06-26T03:40:59;99934.78;;;19.08;36.22
54122;BME280;40029;58.708;50.190;2023-06-26T03:43:30;99934.44;;;19.12;36.22
54122;BME280;40029;58.708;50.190;2023-06-26T03:46:22;99931.03;;;19.23;35.91
54122;BME280;40029;58.708;50.190;2023-06-26T03:48:53;99919.41;;;19.26;35.78
54122;BME280;40029;58.708;50.190;2023-06-26T03:51:25;99932.88;;;19.46;35.33
54122;BME280;40029;58.708;50.190;2023-06-26T03:53:56;99883.94;;;19.17;35.07
54122;BME280;40029;58.708;50.190;2023-06-26T03:56:27;99927.53;;;19.59;34.75
54122;BME280;40029;58.708;50.190;2023-06-26T03:58:58;99884.69;;;19.43;34.59
54122;BME280;40029;58.708;50.190;2023-06-26T04:01:31;99872.78;;;19.37;34.36
54122;BME280;40029;58.708;50.190;2023-06-26T04:04:21;99923.22;;;19.82;33.73
54122;BME280;40029;58.708;50.190;2023-06-26T04:06:52;99925.94;;;19.93;33.40
54122;BME280;40029;58.708;50.190;2023-06-26T04:09:29;99919.34;;;19.99;33.32
54122;BME280;40029;58.708;50.190;2023-06-26T04:12:05;99894.28;;;19.81;33.14
54122;BME280;40029;58.708;50.190;2023-06-26T04:14:39;99923.50;;;20.14;32.51
54122;BME280;40029;58.708;50.190;2023-06-26T04:17:10;99901.09;;;20.07;32.01
54122;BME280;40029;58.708;50.190;2023-06-26T04:19:42;99925.88;;;20.17;31.95
54122;BME280;40029;58.708;50.190;2023-06-26T04:22:13;99878.56;;;19.90;31.78
54122;BME280;40029;58.708;50.190;2023-06-26T04:25:03;99913.44;;;20.31;31.73
54122;BME280;40029;58.708;50.190;2023-06-26T04:27:36;99911.16;;;20.37;31.70
54122;BME280;40029;58.708;50.190;2023-06-26T04:30:08;99871.09;;;20.31;31.39
54122;BME280;40029;58.708;50.190;2023-06-26T04:32:39;99918.69;;;20.66;30.99
54122;BME280;40029;58.708;50.190;2023-06-26T04:35:10;99899.31;;;20.54;30.44
54122;BME280;40029;58.708;50.190;2023-06-26T04:38:00;99918.34;;;20.82;29.97
54122;BME280;40029;58.708;50.190;2023-06-26T04:40:34;99930.84;;;21.02;29.65
54122;BME280;40029;58.708;50.190;2023-06-26T04:43:05;99890.88;;;20.94;29.22
54122;BME280;40029;58.708;50.190;2023-06-26T04:45:36;99927.22;;;21.14;29.27
54122;BME280;40029;58.708;50.190;2023-06-26T04:48:08;99844.81;;;20.74;28.86
54122;BME280;40029;58.708;50.190;2023-06-26T04:50:58;99909.88;;;21.21;28.88
54122;BME280;40029;58.708;50.190;2023-06-26T04:53:29;99916.88;;;21.22;29.05
54122;BME280;40029;58.708;50.190;2023-06-26T04:56:01;99926.38;;;21.48;28.93
54122;BME280;40029;58.708;50.190;2023-06-26T04:58:32;99929.88;;;21.48;28.47
54122;BME280;40029;58.708;50.190;2023-06-26T05:01:03;99882.03;;;21.27;27.91
54122;BME280;40029;58.708;50.190;2023-06-26T05:03:37;99895.19;;;21.40;27.56
54122;BME280;40029;58.708;50.190;2023-06-26T05:06:08;99877.75;;;21.37;26.45
54122;BME280;40029;58.708;50.190;2023-06-26T05:08:40;99894.19;;;21.52;26.44
54122;BME280;40029;58.708;50.190;2023-06-26T05:11:11;99906.88;;;21.81;25.82
54122;BME280;40029;58.708;50.190;2023-06-26T05:13:43;99883.25;;;21.78;26.00
54122;BME280;40029;58.708;50.190;2023-06-26T05:16:14;99924.50;;;22.03;24.81
54122;BME280;40029;58.708;50.190;2023-06-26T05:18:45;99869.94;;;21.89;24.44
54122;BME280;40029;58.708;50.190;2023-06-26T05:21:17;99908.19;;;22.07;24.62
54122;BME280;40029;58.708;50.190;2023-06-26T05:23:49;99865.78;;;21.96;24.60
54122;BME280;40029;58.708;50.190;2023-06-26T05:26:23;99876.22;;;22.09;24.78
54122;BME280;40029;58.708;50.190;2023-06-26T05:28:54;99913.50;;;22.39;24.71
54122;BME280;40029;58.708;50.190;2023-06-26T05:31:26;99882.34;;;22.20;24.69
54122;BME280;40029;58.708;50.190;2023-06-26T05:33:57;99906.59;;;22.58;24.29
54122;BME280;40029;58.708;50.190;2023-06-26T05:36:31;99871.84;;;22.40;23.60
54122;BME280;40029;58.708;50.190;2023-06-26T05:39:04;99901.03;;;22.61;23.20
54122;BME280;40029;58.708;50.190;2023-06-26T05:41:36;99872.97;;;22.47;22.51
54122;BME280;40029;58.708;50.190;2023-06-26T05:44:07;99898.84;;;22.76;21.65
54122;BME280;40029;58.708;50.190;2023-06-26T05:46:38;99898.56;;;22.69;22.21
54122;BME280;40029;58.708;50.190;2023-06-26T05:49:09;99847.16;;;22.49;22.13
54122;BME280;40029;58.708;50.190;2023-06-26T05:51:40;99892.31;;;22.80;21.74
54122;BME280;40029;58.708;50.190;2023-06-26T05:54:12;99874.94;;;22.76;21.73
54122;BME280;40029;58.708;50.190;2023-06-26T05:56:45;99909.50;;;23.06;21.12
54122;BME280;40029;58.708;50.190;2023-06-26T05:59:36;99865.69;;;22.91;19.87
54122;BME280;40029;58.708;50.190;2023-06-26T06:02:11;99909.06;;;23.51;18.89
54122;BME280;40029;58.708;50.190;2023-06-26T06:04:42;99872.41;;;22.95;19.59
54122;BME280;40029;58.708;50.190;2023-06-26T06:07:13;99893.47;;;23.27;19.18
54122;BME280;40029;58.708;50.190;2023-06-26T06:09:44;99862.53;;;23.07;19.02
54122;BME280;40029;58.708;50.190;2023-06-26T06:12:16;99858.19;;;23.15;18.18
54122;BME280;40029;58.708;50.190;2023-06-26T06:14:47;99882.19;;;23.54;15.46
54122;BME280;40029;58.708;50.190;2023-06-26T06:17:20;99848.56;;;23.24;14.91
54122;BME280;40029;58.708;50.190;2023-06-26T06:19:51;99857.13;;;23.37;14.63
54122;BME280;40029;58.708;50.190;2023-06-26T06:22:22;99885.00;;;23.62;14.42
54122;BME280;40029;58.708;50.190;2023-06-26T06:24:53;99897.31;;;23.63;15.08
54122;BME280;40029;58.708;50.190;2023-06-26T06:27:24;99891.91;;;23.84;15.00
54122;BME280;40029;58.708;50.190;2023-06-26T06:29:55;99884.03;;;23.83;13.82
54122;BME280;40029;58.708;50.190;2023-06-26T06:32:27;99875.63;;;23.97;13.95
54122;BME280;40029;58.708;50.190;2023-06-26T06:34:58;99874.25;;;23.93;14.08
54122;BME280;40029;58.708;50.190;2023-06-26T06:37:29;99845.38;;;23.79;14.27
54122;BME280;40029;58.708;50.190;2023-06-26T06:40:02;99814.31;;;23.79;14.26
54122;BME280;40029;58.708;50.190;2023-06-26T06:42:34;99854.63;;;23.94;14.74
54122;BME280;40029;58.708;50.190;2023-06-26T06:45:06;99888.19;;;24.43;15.03
54122;BME280;40029;58.708;50.190;2023-06-26T06:47:38;99850.38;;;24.40;14.66
54122;BME280;40029;58.708;50.190;2023-06-26T06:50:09;99839.44;;;24.24;14.00
54122;BME280;40029;58.708;50.190;2023-06-26T06:52:40;99832.34;;;24.05;13.17
54122;BME280;40029;58.708;50.190;2023-06-26T06:55:12;99829.97;;;24.02;13.88
54122;BME280;40029;58.708;50.190;2023-06-26T06:57:43;99875.44;;;24.37;14.77
54122;BME280;40029;58.708;50.190;2023-06-26T07:00:14;99880.78;;;24.47;14.31
54122;BME280;40029;58.708;50.190;2023-06-26T07:02:46;99877.13;;;24.48;14.34
54122;BME280;40029;58.708;50.190;2023-06-26T07:05:17;99878.84;;;24.67;14.43
54122;BME280;40029;58.708;50.190;2023-06-26T07:07:49;99827.28;;;24.58;14.13
54122;BME280;40029;58.708;50.190;2023-06-26T07:10:20;99877.16;;;25.03;13.43
54122;BME280;40029;58.708;50.190;2023-06-26T07:12:51;99869.31;;;25.02;13.28
54122;BME280;40029;58.708;50.190;2023-06-26T07:15:22;99844.59;;;25.09;12.79
54122;BME280;40029;58.708;50.190;2023-06-26T07:17:53;99837.50;;;25.46;12.87
54122;BME280;40029;58.708;50.190;2023-06-26T07:20:25;99853.94;;;25.59;13.16
54122;BME280;40029;58.708;50.190;2023-06-26T07:22:56;99836.72;;;25.35;13.53
54122;BME280;40029;58.708;50.190;2023-06-26T07:25:27;99832.53;;;25.05;14.44
54122;BME280;40029;58.708;50.190;2023-06-26T07:27:58;99833.31;;;24.88;14.09
54122;BME280;40029;58.708;50.190;2023-06-26T07:30:29;99870.16;;;25.02;14.13
54122;BME280;40029;58.708;50.190;2023-06-26T07:33:00;99872.81;;;24.75;14.23
54122;BME280;40029;58.708;50.190;2023-06-26T07:35:32;99822.34;;;24.63;14.03
54122;BME280;40029;58.708;50.190;2023-06-26T07:38:04;99863.28;;;25.00;13.66
54122;BME280;40029;58.708;50.190;2023-06-26T07:40:35;99832.28;;;24.43;14.57
54122;BME280;40029;58.708;50.190;2023-06-26T07:43:06;99867.69;;;24.54;15.02
54122;BME280;40029;58.708;50.190;2023-06-26T07:45:37;99844.75;;;24.24;14.76
54122;BME280;40029;58.708;50.190;2023-06-26T07:48:11;99866.47;;;24.76;13.88
54122;BME280;40029;58.708;50.190;2023-06-26T07:50:43;99863.00;;;25.03;13.70
54122;BME280;40029;58.708;50.190;2023-06-26T07:53:14;99820.38;;;24.93;13.50
54122;BME280;40029;58.708;50.190;2023-06-26T07:55:45;99843.50;;;25.65;12.54
54122;BME280;40029;58.708;50.190;2023-06-26T07:58:16;99818.56;;;25.75;12.23
54122;BME280;40029;58.708;50.190;2023-06-26T08:00:48;99818.44;;;25.58;12.72
54122;BME280;40029;58.708;50.190;2023-06-26T08:03:19;99819.31;;;25.31;12.36
54122;BME280;40029;58.708;50.190;2023-06-26T08:05:50;99848.06;;;25.37;13.14
54122;BME280;40029;58.708;50.190;2023-06-26T08:08:21;99845.78;;;25.42;12.80
54122;BME280;40029;58.708;50.190;2023-06-26T08:10:53;99807.31;;;25.00;13.39
54122;BME280;40029;58.708;50.190;2023-06-26T08:13:25;99869.63;;;24.99;14.42
54122;BME280;40029;58.708;50.190;2023-06-26T08:15:56;99805.09;;;24.40;14.58
54122;BME280;40029;58.708;50.190;2023-06-26T08:18:27;99823.47;;;24.24;14.87
54122;BME280;40029;58.708;50.190;2023-06-26T08:21:17;99833.53;;;24.77;14.65
54122;BME280;40029;58.708;50.190;2023-06-26T08:23:48;99810.41;;;24.77;14.13
54122;BME280;40029;58.708;50.190;2023-06-26T08:26:19;99800.34;;;25.16;13.69
54122;BME280;40029;58.708;50.190;2023-06-26T08:28:51;99771.91;;;25.07;13.23
54122;BME280;40029;58.708;50.190;2023-06-26T08:31:22;99801.91;;;25.37;12.86
54122;BME280;40029;58.708;50.190;2023-06-26T08:33:53;99835.19;;;25.51;13.21
54122;BME280;40029;58.708;50.190;2023-06-26T08:36:25;99834.50;;;25.66;12.93
54122;BME280;40029;58.708;50.190;2023-06-26T08:38:56;99823.59;;;25.78;13.15
54122;BME280;40029;58.708;50.190;2023-06-26T08:41:29;99752.41;;;25.60;12.55
54122;BME280;40029;58.708;50.190;2023-06-26T08:44:00;99828.84;;;26.05;12.83
54122;BME280;40029;58.708;50.190;2023-06-26T08:46:31;99794.00;;;25.89;12.62
54122;BME280;40029;58.708;50.190;2023-06-26T08:49:25;99835.25;;;25.95;12.98
54122;BME280;40029;58.708;50.190;2023-06-26T08:52:30;99799.06;;;25.38;12.78
54122;BME280;40029;58.708;50.190;2023-06-26T08:55:06;99831.00;;;25.48;12.53
54122;BME280;40029;58.708;50.190;2023-06-26T08:57:58;99822.44;;;25.27;12.56
54122;BME280;40029;58.708;50.190;2023-06-26T09:00:30;99832.06;;;25.55;12.54
54122;BME280;40029;58.708;50.190;2023-06-26T09:03:03;99775.91;;;25.39;12.19
54122;BME280;40029;58.708;50.190;2023-06-26T09:05:34;99826.78;;;25.99;11.85
54122;BME280;40029;58.708;50.190;2023-06-26T09:08:07;99823.06;;;25.56;12.37
54122;BME280;40029;58.708;50.190;2023-06-26T09:10:57;99824.13;;;25.63;12.36
54122;BME280;40029;58.708;50.190;2023-06-26T09:13:29;99819.03;;;25.70;11.90
54122;BME280;40029;58.708;50.190;2023-06-26T09:16:06;99816.97;;;25.46;12.57
54122;BME280;40029;58.708;50.190;2023-06-26T09:18:40;99816.31;;;25.62;12.28
54122;BME280;40029;58.708;50.190;2023-06-26T09:21:12;99819.72;;;25.90;12.57
54122;BME280;40029;58.708;50.190;2023-06-26T09:23:45;99794.25;;;25.78;12.28
54122;BME280;40029;58.708;50.190;2023-06-26T09:26:17;99781.59;;;25.80;11.54
54122;BME280;40029;58.708;50.190;2023-06-26T09:28:48;99779.47;;;26.09;11.18
54122;BME280;40029;58.708;50.190;2023-06-26T09:31:21;99773.75;;;26.30;11.00
54122;BME280;40029;58.708;50.190;2023-06-26T09:34:00;99788.81;;;26.74;10.05
54122;BME280;40029;58.708;50.190;2023-06-26T09:36:33;99725.81;;;26.71;10.74
54122;BME280;40029;58.708;50.190;2023-06-26T09:39:06;99762.69;;;27.02;10.40
54122;BME280;40029;58.708;50.190;2023-06-26T09:41:42;99805.47;;;27.02;10.63
54122;BME280;40029;58.708;50.190;2023-06-26T09:44:16;99811.53;;;26.43;11.10
54122;BME280;40029;58.708;50.190;2023-06-26T09:46:47;99811.44;;;26.27;11.33
54122;BME280;40029;58.708;50.190;2023-06-26T09:49:18;99772.72;;;25.97;10.94
54122;BME280;40029;58.708;50.190;2023-06-26T09:51:50;99805.53;;;26.15;10.62
54122;BME280;40029;58.708;50.190;2023-06-26T09:54:21;99808.13;;;26.25;10.57
54122;BME280;40029;58.708;50.190;2023-06-26T09:57:16;99800.41;;;26.22;10.57
54122;BME280;40029;58.708;50.190;2023-06-26T09:59:46;99761.50;;;26.20;10.17
54122;BME280;40029;58.708;50.190;2023-06-26T10:02:18;99808.03;;;26.43;10.39
54122;BME280;40029;58.708;50.190;2023-06-26T10:04:49;99767.97;;;26.43;9.20
54122;BME280;40029;58.708;50.190;2023-06-26T10:07:21;99801.50;;;26.63;9.54
54122;BME280;40029;58.708;50.190;2023-06-26T10:09:55;99759.53;;;26.56;9.48
54122;BME280;40029;58.708;50.190;2023-06-26T10:12:29;99758.44;;;26.83;9.56
54122;BME280;40029;58.708;50.190;2023-06-26T10:15:02;99791.50;;;27.24;10.18
54122;BME280;40029;58.708;50.190;2023-06-26T10:17:38;99784.81;;;26.78;10.65
54122;BME280;40029;58.708;50.190;2023-06-26T10:20:14;99745.69;;;26.26;10.73
54122;BME280;40029;58.708;50.190;2023-06-26T10:22:46;99780.22;;;26.28;10.55
54122;BME280;40029;58.708;50.190;2023-06-26T10:25:19;99785.53;;;26.20;11.13
54122;BME280;40029;58.708;50.190;2023-06-26T10:27:56;99795.81;;;26.66;10.42
54122;BME280;40029;58.708;50.190;2023-06-26T10:30:33;99751.69;;;26.28;10.20
54122;BME280;40029;58.708;50.190;2023-06-26T10:33:24;99784.84;;;26.86;9.78
54122;BME280;40029;58.708;50.190;2023-06-26T10:36:15;99775.56;;;27.06;9.08
54122;BME280;40029;58.708;50.190;2023-06-26T10:38:58;99742.44;;;26.99;9.98
54122;BME280;40029;58.708;50.190;2023-06-26T10:41:36;99757.72;;;27.15;10.31
54122;BME280;40029;58.708;50.190;2023-06-26T10:44:10;99794.00;;;27.34;10.21
54122;BME280;40029;58.708;50.190;2023-06-26T10:46:54;99795.63;;;27.19;9.66
54122;BME280;40029;58.708;50.190;2023-06-26T10:49:46;99783.63;;;27.14;9.41
54122;BME280;40029;58.708;50.190;2023-06-26T10:52:37;99764.69;;;27.08;9.30
54122;BME280;40029;58.708;50.190;2023-06-26T10:55:08;99789.47;;;27.18;9.58
54122;BME280;40029;58.708;50.190;2023-06-26T10:57:45;99744.34;;;27.15;9.41
54122;BME280;40029;58.708;50.190;2023-06-26T11:00:17;99791.66;;;27.47;9.36
54122;BME280;40029;58.708;50.190;2023-06-26T11:02:51;99747.69;;;27.41;9.17
54122;BME280;40029;58.708;50.190;2023-06-26T11:05:41;99706.72;;;27.16;9.08
54122;BME280;40029;58.708;50.190;2023-06-26T11:08:12;99765.72;;;27.31;9.19
54122;BME280;40029;58.708;50.190;2023-06-26T11:10:54;99735.53;;;26.72;9.27
54122;BME280;40029;58.708;50.190;2023-06-26T11:13:26;99737.69;;;26.69;9.26
54122;BME280;40029;58.708;50.190;2023-06-26T11:15:58;99736.06;;;27.00;9.07
54122;BME280;40029;58.708;50.190;2023-06-26T11:18:30;99727.94;;;27.51;8.69
54122;BME280;40029;58.708;50.190;2023-06-26T11:21:12;99755.75;;;27.74;9.40
54122;BME280;40029;58.708;50.190;2023-06-26T11:23:45;99724.59;;;27.16;9.61
54122;BME280;40029;58.708;50.190;2023-06-26T11:26:21;99722.56;;;27.10;9.25
54122;BME280;40029;58.708;50.190;2023-06-26T11:28:56;99730.13;;;27.80;8.48
54122;BME280;40029;58.708;50.190;2023-06-26T11:31:29;99713.53;;;27.84;7.83
54122;BME280;40029;58.708;50.190;2023-06-26T11:34:05;99767.06;;;28.09;8.08
54122;BME280;40029;58.708;50.190;2023-06-26T11:36:42;99760.91;;;27.92;8.43
54122;BME280;40029;58.708;50.190;2023-06-26T11:39:13;99764.13;;;28.43;8.66
54122;BME280;40029;58.708;50.190;2023-06-26T11:42:04;99747.19;;;29.59;7.12
54122;BME280;40029;58.708;50.190;2023-06-26T11:44:40;99704.53;;;30.23;6.02
54122;BME280;40029;58.708;50.190;2023-06-26T11:47:17;99741.56;;;31.30;5.57
54122;BME280;40029;58.708;50.190;2023-06-26T11:49:49;99751.00;;;31.90;5.18
54122;BME280;40029;58.708;50.190;2023-06-26T11:52:20;99715.81;;;32.33;4.42
54122;BME280;40029;58.708;50.190;2023-06-26T11:54:52;99745.75;;;32.99;4.14
54122;BME280;40029;58.708;50.190;2023-06-26T11:57:24;99738.09;;;33.23;3.73
54122;BME280;40029;58.708;50.190;2023-06-26T12:00:14;99720.25;;;33.35;3.62
54122;BME280;40029;58.708;50.190;2023-06-26T12:02:47;99725.88;;;33.60;3.20
54122;BME280;40029;58.708;50.190;2023-06-26T12:05:18;99720.47;;;33.53;3.37
54122;BME280;40029;58.708;50.190;2023-06-26T12:07:51;99681.19;;;33.11;2.52
54122;BME280;40029;58.708;50.190;2023-06-26T12:10:22;99735.28;;;32.76;3.51
54122;BME280;40029;58.708;50.190;2023-06-26T12:12:54;99723.41;;;32.71;3.83
54122;BME280;40029;58.708;50.190;2023-06-26T12:15:29;99702.75;;;33.04;3.78
54122;BME280;40029;58.708;50.190;2023-06-26T12:18:07;99732.50;;;33.18;3.52
54122;BME280;40029;58.708;50.190;2023-06-26T12:20:40;99693.69;;;33.52;3.83
54122;BME280;40029;58.708;50.190;2023-06-26T12:23:33;99718.28;;;34.22;3.21
54122;BME280;40029;58.708;50.190;2023-06-26T12:26:20;99722.06;;;34.72;2.37
54122;BME280;40029;58.708;50.190;2023-06-26T12:28:52;99699.03;;;34.56;2.78
54122;BME280;40029;58.708;50.190;2023-06-26T12:31:23;99717.16;;;34.49;3.18
54122;BME280;40029;58.708;50.190;2023-06-26T12:33:54;99712.34;;;34.00;3.26
54122;BME280;40029;58.708;50.190;2023-06-26T12:36:26;99720.22;;;33.88;3.78
54122;BME280;40029;58.708;50.190;2023-06-26T12:39:00;99711.31;;;33.74;3.44
54122;BME280;40029;58.708;50.190;2023-06-26T12:41:32;99717.34;;;33.63;3.91
54122;BME280;40029;58.708;50.190;2023-06-26T12:44:03;99675.56;;;33.26;4.08
54122;BME280;40029;58.708;50.190;2023-06-26T12:46:34;99681.41;;;33.49;4.15
54122;BME280;40029;58.708;50.190;2023-06-26T12:49:06;99709.03;;;33.71;3.89
54122;BME280;40029;58.708;50.190;2023-06-26T12:51:37;99677.44;;;33.72;3.20
54122;BME280;40029;58.708;50.190;2023-06-26T12:54:10;99701.53;;;34.45;2.88
54122;BME280;40029;58.708;50.190;2023-06-26T12:56:42;99685.59;;;34.75;2.21
54122;BME280;40029;58.708;50.190;2023-06-26T12:59:13;99699.41;;;34.08;3.14
54122;BME280;40029;58.708;50.190;2023-06-26T13:02:03;99719.59;;;32.93;3.48
54122;BME280;40029;58.708;50.190;2023-06-26T13:04:35;99670.50;;;31.80;4.14
54122;BME280;40029;58.708;50.190;2023-06-26T13:07:08;99695.63;;;31.10;5.15
54122;BME280;40029;58.708;50.190;2023-06-26T13:09:39;99714.13;;;30.77;5.39
54122;BME280;40029;58.708;50.190;2023-06-26T13:12:12;99671.59;;;31.30;5.44
54122;BME280;40029;58.708;50.190;2023-06-26T13:14:44;99679.13;;;31.20;5.27
54122;BME280;40029;58.708;50.190;2023-06-26T13:17:15;99704.59;;;30.59;5.57
54122;BME280;40029;58.708;50.190;2023-06-26T13:19:46;99688.41;;;30.38;5.76
54122;BME280;40029;58.708;50.190;2023-06-26T13:22:18;99671.63;;;30.06;6.99
54122;BME280;40029;58.708;50.190;2023-06-26T13:24:49;99698.13;;;30.39;6.39
54122;BME280;40029;58.708;50.190;2023-06-26T13:27:20;99667.84;;;30.01;6.62
54122;BME280;40029;58.708;50.190;2023-06-26T13:29:51;99697.84;;;29.89;6.30
54122;BME280;40029;58.708;50.190;2023-06-26T13:32:23;99665.25;;;29.63;6.90
54122;BME280;40029;58.708;50.190;2023-06-26T13:34:55;99653.47;;;29.26;7.02
54122;BME280;40029;58.708;50.190;2023-06-26T13:37:26;99698.81;;;29.21;7.38